Time;durP1;ratioP1;P1;durP2;ratioP2;P2;SDS_P1;SDS_P2;PMS_P1;PMS_P2;Temp;Humidity;BMP_temperature;BMP_pressure;BME280_temperature;BME280_humidity;BME280_pressure;Samples;Min_cycle;Max_cycle;Signal;HPM_P1;HPM_P2
2022/12/24 00:00:26;;;;;;;8.90;2.25;;;11.70;99.90;;;;;;4998486;28;20034;-55
2022/12/24 00:02:51;;;;;;;8.30;2.28;;;11.70;99.90;;;;;;4996985;28;20022;-57
2022/12/24 00:05:20;;;;;;;9.70;3.33;;;11.70;99.90;;;;;;4998679;28;20037;-60
2022/12/24 00:07:46;;;;;;;9.88;2.35;;;11.60;99.90;;;;;;4996658;28;20026;-54
2022/12/24 00:10:11;;;;;;;12.77;3.90;;;11.60;99.90;;;;;;5015110;28;20098;-56
2022/12/24 00:12:37;;;;;;;12.55;2.47;;;11.60;99.90;;;;;;4999215;28;20529;-53
2022/12/24 00:15:04;;;;;;;10.57;2.33;;;11.60;99.90;;;;;;4997753;28;20045;-55
2022/12/24 00:17:29;;;;;;;9.65;1.88;;;11.60;99.90;;;;;;4998654;28;20033;-57
2022/12/24 00:19:55;;;;;;;11.25;2.15;;;11.60;99.90;;;;;;4997551;28;20014;-57
2022/12/24 00:22:20;;;;;;;8.15;2.13;;;11.50;99.90;;;;;;4997103;28;20097;-56
2022/12/24 00:24:46;;;;;;;7.07;2.47;;;11.50;99.90;;;;;;4997825;28;20027;-56
2022/12/24 00:27:13;;;;;;;16.60;2.40;;;11.50;99.90;;;;;;4997971;28;20050;-55
2022/12/24 00:29:38;;;;;;;11.55;1.95;;;11.50;99.90;;;;;;4998054;28;20113;-56
2022/12/24 00:32:08;;;;;;;12.98;2.83;;;11.40;99.90;;;;;;4997993;28;20049;-55
2022/12/24 00:34:35;;;;;;;14.27;3.15;;;11.50;99.90;;;;;;4998057;28;20068;-55
2022/12/24 00:37:00;;;;;;;9.25;2.13;;;11.50;99.90;;;;;;4998079;28;20026;-56
2022/12/24 00:39:26;;;;;;;11.73;3.28;;;11.50;99.90;;;;;;4996818;28;20037;-56
2022/12/24 00:41:51;;;;;;;9.25;2.08;;;11.50;99.90;;;;;;4996508;28;20034;-53
2022/12/24 00:44:17;;;;;;;10.52;2.65;;;11.50;99.90;;;;;;5013279;28;20030;-58
2022/12/24 00:46:42;;;;;;;9.23;2.72;;;11.40;99.90;;;;;;4998594;28;20085;-59
2022/12/24 00:49:11;;;;;;;15.77;3.20;;;11.40;99.90;;;;;;4998303;28;20097;-58
2022/12/24 00:51:36;;;;;;;11.57;2.25;;;11.40;99.90;;;;;;5012123;28;20023;-58
2022/12/24 00:54:02;;;;;;;15.10;3.28;;;11.30;99.90;;;;;;4996251;28;20065;-55
2022/12/24 00:56:28;;;;;;;12.85;2.85;;;11.40;99.90;;;;;;4998417;28;20045;-55
2022/12/24 00:58:54;;;;;;;6.90;1.95;;;11.40;99.90;;;;;;4999122;28;20037;-57
2022/12/24 01:01:20;;;;;;;10.30;2.03;;;11.40;99.90;;;;;;4997286;28;20022;-54
2022/12/24 01:03:46;;;;;;;11.98;3.00;;;11.40;99.90;;;;;;4997163;28;20027;-58
2022/12/24 01:06:15;;;;;;;8.68;2.03;;;11.60;99.90;;;;;;4998952;28;20034;-58
2022/12/24 01:08:41;;;;;;;14.40;2.92;;;11.50;99.90;;;;;;5013354;28;20053;-55
2022/12/24 01:11:08;;;;;;;15.73;2.95;;;11.50;99.90;;;;;;4999023;28;20507;-58
2022/12/24 01:13:34;;;;;;;7.57;2.10;;;11.50;99.90;;;;;;4997229;28;20402;-54
2022/12/24 01:16:00;;;;;;;13.35;3.28;;;11.50;99.90;;;;;;4997911;28;20689;-56
2022/12/24 01:18:26;;;;;;;14.57;3.05;;;11.50;99.90;;;;;;4999883;28;20081;-56
2022/12/24 01:21:00;;;;;;;10.45;2.40;;;11.40;99.90;;;;;;5000570;28;20030;-59
2022/12/24 01:23:26;;;;;;;15.50;3.33;;;11.40;99.90;;;;;;5000153;28;20379;-56
2022/12/24 01:25:52;;;;;;;12.05;3.58;;;11.40;99.90;;;;;;5001746;28;20058;-55
2022/12/24 01:28:18;;;;;;;13.20;2.83;;;11.40;99.90;;;;;;5002223;28;20022;-58
2022/12/24 01:30:44;;;;;;;18.88;4.07;;;11.40;99.90;;;;;;5002032;28;20018;-53
2022/12/24 01:33:09;;;;;;;14.25;3.35;;;11.40;99.90;;;;;;5000447;28;20517;-53
2022/12/24 01:35:38;;;;;;;16.65;3.67;;;11.50;99.90;;;;;;5016061;28;20022;-57
2022/12/24 01:38:04;;;;;;;14.45;3.13;;;11.50;99.90;;;;;;5001627;28;20238;-56
2022/12/24 01:43:23;;;;;;;12.27;3.30;;;11.50;99.90;;;;;;5000652;28;20508;-55
2022/12/24 01:45:51;;;;;;;14.80;3.05;;;11.50;99.90;;;;;;5001540;28;20022;-57
2022/12/24 01:48:51;;;;;;;13.52;3.80;;;11.50;99.90;;;;;;5001774;28;20027;-56
2022/12/24 01:51:55;;;;;;;14.95;3.33;;;11.50;99.90;;;;;;4998717;28;20023;-57
2022/12/24 01:54:48;;;;;;;18.73;4.60;;;11.40;99.90;;;;;;5017011;28;20030;-56
2022/12/24 01:57:34;;;;;;;11.82;2.58;;;11.30;99.90;;;;;;4996796;28;20034;-56
2022/12/24 02:00:04;;;;;;;17.52;3.90;;;11.10;99.90;;;;;;5001271;28;20026;-57
2022/12/24 02:02:32;;;;;;;10.50;2.10;;;11.20;99.90;;;;;;4999002;28;20030;-58
2022/12/24 02:05:00;;;;;;;16.67;3.72;;;11.20;99.90;;;;;;5001387;28;20022;-57
2022/12/24 02:07:26;;;;;;;15.25;3.55;;;11.20;99.90;;;;;;5001624;28;20031;-59
2022/12/24 02:10:00;;;;;;;9.70;2.70;;;11.10;99.90;;;;;;5015904;28;20065;-57
2022/12/24 02:12:28;;;;;;;16.00;3.05;;;11.10;99.90;;;;;;5000068;28;20022;-55
2022/12/24 02:14:54;;;;;;;14.32;2.95;;;11.10;99.90;;;;;;5000791;28;20022;-55
2022/12/24 02:17:36;;;;;;;9.20;2.72;;;11.00;99.90;;;;;;5015638;28;20106;-57
2022/12/24 02:20:20;;;;;;;13.63;3.22;;;11.00;99.90;;;;;;5000685;28;20038;-57
2022/12/24 02:23:23;;;;;;;15.13;3.50;;;11.00;99.90;;;;;;4997690;28;20036;-56
2022/12/24 02:26:26;;;;;;;8.80;2.63;;;11.00;99.90;;;;;;4998627;28;20026;-54
2022/12/24 02:29:10;;;;;;;17.52;2.95;;;11.00;99.90;;;;;;4999893;28;20037;-54
2022/12/24 02:31:47;;;;;;;14.05;2.60;;;11.00;99.90;;;;;;5000421;28;20069;-54
2022/12/24 02:34:26;;;;;;;14.15;3.05;;;11.00;99.90;;;;;;4999291;28;20414;-53
2022/12/24 02:36:58;;;;;;;17.00;2.60;;;11.00;99.90;;;;;;4999438;28;20019;-55
2022/12/24 02:39:36;;;;;;;22.83;3.50;;;11.00;99.90;;;;;;4999531;28;20026;-58
2022/12/24 02:42:06;;;;;;;12.88;2.75;;;11.00;99.90;;;;;;4998408;28;20109;-56
2022/12/24 02:44:38;;;;;;;12.80;2.67;;;11.00;99.90;;;;;;5000251;28;20045;-58
2022/12/24 02:47:07;;;;;;;14.05;2.97;;;11.00;99.90;;;;;;4999397;28;20022;-58
2022/12/24 02:49:33;;;;;;;15.15;2.92;;;11.10;99.90;;;;;;4999542;28;20050;-56
2022/12/24 02:51:59;;;;;;;15.82;2.90;;;11.10;99.90;;;;;;4995849;28;20022;-55
2022/12/24 02:54:25;;;;;;;9.38;2.88;;;11.10;99.90;;;;;;5000184;28;20062;-55
2022/12/24 02:57:22;;;;;;;20.50;3.47;;;11.20;99.90;;;;;;5000019;28;20030;-52
2022/12/24 02:59:58;;;;;;;9.93;3.58;;;11.20;99.90;;;;;;4999627;28;20106;-53
2022/12/24 03:02:32;;;;;;;15.10;5.07;;;11.20;99.90;;;;;;4998059;28;20022;-53
2022/12/24 03:05:16;;;;;;;16.38;2.97;;;11.30;99.90;;;;;;4999165;28;20052;-52
2022/12/24 03:08:05;;;;;;;15.85;4.13;;;11.30;99.90;;;;;;4999278;28;20030;-52
2022/12/24 03:10:36;;;;;;;9.63;2.50;;;11.30;99.90;;;;;;4999447;28;20034;-53
2022/12/24 03:13:09;;;;;;;15.30;3.28;;;11.30;99.90;;;;;;4997737;28;20026;-56
2022/12/24 03:15:37;;;;;;;15.27;3.80;;;11.30;99.90;;;;;;4999132;28;20041;-56
2022/12/24 03:18:05;;;;;;;12.10;3.15;;;11.30;99.90;;;;;;4999160;28;20097;-57
2022/12/24 03:20:38;;;;;;;12.10;2.88;;;11.20;99.90;;;;;;4998463;28;20072;-56
2022/12/24 03:23:04;;;;;;;16.05;3.53;;;11.20;99.90;;;;;;4997539;28;20026;-56
2022/12/24 03:25:32;;;;;;;10.43;3.00;;;11.10;99.90;;;;;;4998604;28;20033;-53
2022/12/24 03:28:00;;;;;;;13.50;3.40;;;11.10;99.90;;;;;;4997711;28;20418;-57
2022/12/24 03:30:26;;;;;;;12.73;2.97;;;11.10;99.90;;;;;;4998838;28;20455;-54
2022/12/24 03:32:52;;;;;;;21.33;3.83;;;11.00;99.90;;;;;;4998296;28;20125;-51
2022/12/24 03:35:17;;;;;;;11.75;2.72;;;11.00;99.90;;;;;;4999816;28;20161;-57
2022/12/24 03:37:44;;;;;;;23.73;3.60;;;10.90;99.90;;;;;;5014408;28;20506;-53
2022/12/24 03:40:09;;;;;;;12.43;2.83;;;10.90;99.90;;;;;;4999188;28;20094;-55
2022/12/24 03:42:35;;;;;;;13.95;2.28;;;10.80;99.90;;;;;;4997622;28;20048;-52
2022/12/24 03:45:00;;;;;;;13.05;3.35;;;10.80;99.90;;;;;;5013382;28;20026;-55
2022/12/24 03:47:26;;;;;;;19.70;3.30;;;10.70;99.90;;;;;;4998144;28;20056;-56
2022/12/24 03:49:51;;;;;;;19.27;3.80;;;10.70;99.90;;;;;;4999350;28;20106;-55
2022/12/24 03:52:17;;;;;;;11.70;2.40;;;10.70;99.90;;;;;;4997310;28;20372;-58
2022/12/24 03:54:42;;;;;;;16.27;3.30;;;10.60;99.90;;;;;;4996884;28;20091;-53
2022/12/24 03:57:08;;;;;;;10.73;2.63;;;10.60;99.90;;;;;;4995408;28;20030;-57
2022/12/24 03:59:33;;;;;;;20.10;3.50;;;10.60;99.90;;;;;;4996210;28;20436;-57
2022/12/24 04:01:59;;;;;;;14.52;2.60;;;10.60;99.90;;;;;;4995517;28;20037;-57
2022/12/24 04:04:24;;;;;;;10.55;2.88;;;10.70;99.90;;;;;;4995447;28;20026;-57
2022/12/24 04:06:50;;;;;;;14.73;3.58;;;10.70;99.90;;;;;;4996849;28;20034;-57
2022/12/24 04:09:15;;;;;;;11.93;4.15;;;10.80;99.90;;;;;;4996717;28;20026;-56
2022/12/24 04:11:41;;;;;;;10.73;2.45;;;10.70;99.90;;;;;;4995809;28;20029;-55
2022/12/24 04:14:06;;;;;;;13.40;2.83;;;10.70;99.90;;;;;;4996723;28;20027;-54
2022/12/24 04:16:32;;;;;;;10.30;2.53;;;10.70;99.90;;;;;;4997371;28;20065;-56
2022/12/24 04:18:57;;;;;;;14.85;3.20;;;10.70;99.90;;;;;;4997363;28;20034;-55
2022/12/24 04:21:23;;;;;;;9.60;3.05;;;10.70;99.90;;;;;;4995518;28;20524;-56
2022/12/24 04:23:49;;;;;;;18.48;3.90;;;10.70;99.90;;;;;;4995268;28;20050;-53
2022/12/24 04:26:15;;;;;;;12.20;2.63;;;10.70;99.90;;;;;;4996313;28;20041;-55
2022/12/24 04:28:42;;;;;;;14.93;3.05;;;10.60;99.90;;;;;;4996565;28;20030;-57
2022/12/24 04:31:11;;;;;;;20.20;3.28;;;10.70;99.90;;;;;;4996392;28;20045;-57
2022/12/24 04:33:37;;;;;;;12.27;3.75;;;10.70;99.90;;;;;;5009880;28;20023;-57
2022/12/24 04:36:05;;;;;;;16.73;3.15;;;10.60;99.90;;;;;;4996433;28;20089;-57
2022/12/24 04:38:31;;;;;;;18.42;3.13;;;10.60;99.90;;;;;;4997135;28;20031;-57
2022/12/24 04:41:06;;;;;;;20.42;4.03;;;10.60;99.90;;;;;;5011882;28;20033;-55
2022/12/24 04:43:31;;;;;;;12.43;2.65;;;10.60;99.90;;;;;;4996817;28;20031;-56
2022/12/24 04:46:05;;;;;;;17.00;2.22;;;10.50;99.90;;;;;;4996795;28;20081;-56
2022/12/24 04:48:30;;;;;;;9.40;2.88;;;10.50;99.90;;;;;;4996647;28;20023;-56
2022/12/24 04:50:56;;;;;;;10.32;2.22;;;10.50;99.90;;;;;;4994786;28;20394;-58
2022/12/24 04:53:21;;;;;;;12.50;3.45;;;10.50;99.90;;;;;;4998015;28;20042;-55
2022/12/24 04:55:47;;;;;;;21.55;3.22;;;10.50;99.90;;;;;;5000688;28;20031;-58
2022/12/24 04:58:12;;;;;;;10.50;2.58;;;10.40;99.90;;;;;;5000428;28;20398;-57
2022/12/24 05:00:39;;;;;;;14.88;2.72;;;10.40;99.90;;;;;;5016027;28;20123;-56
2022/12/24 05:03:05;;;;;;;13.98;2.47;;;10.40;99.90;;;;;;5000456;28;20453;-55
2022/12/24 05:05:30;;;;;;;15.25;2.70;;;10.40;99.90;;;;;;5000631;28;20125;-54
2022/12/24 05:07:56;;;;;;;10.48;2.45;;;10.30;99.90;;;;;;5000600;28;20027;-54
2022/12/24 05:10:21;;;;;;;11.13;3.20;;;10.20;99.90;;;;;;5001292;28;20502;-57
2022/12/24 05:12:47;;;;;;;25.05;4.38;;;10.20;99.90;;;;;;5000197;28;20030;-54
2022/12/24 05:15:12;;;;;;;13.02;4.15;;;10.20;99.90;;;;;;5000057;28;20038;-57
2022/12/24 05:17:38;;;;;;;19.08;3.75;;;10.20;99.90;;;;;;5001048;28;20030;-58
2022/12/24 05:20:04;;;;;;;9.00;2.45;;;10.20;99.90;;;;;;5000196;28;20037;-57
2022/12/24 05:27:58;;;;;;;15.75;3.90;;;10.20;99.90;;;;;;5001337;28;20053;-54
2022/12/24 05:30:23;;;;;;;12.27;3.25;;;10.20;99.90;;;;;;5000128;28;20078;-55
2022/12/24 05:32:49;;;;;;;17.20;3.05;;;10.20;99.90;;;;;;4999847;28;20318;-55
2022/12/24 05:35:14;;;;;;;18.65;3.95;;;10.10;99.90;;;;;;5000653;28;20038;-57
2022/12/24 05:37:40;;;;;;;18.85;3.08;;;10.10;99.90;;;;;;5000755;28;20041;-58
2022/12/24 05:40:06;;;;;;;22.13;3.25;;;10.10;99.90;;;;;;4999893;28;20491;-54
2022/12/24 05:42:31;;;;;;;18.33;3.58;;;10.20;99.90;;;;;;5014803;28;20581;-54
2022/12/24 05:44:57;;;;;;;15.00;3.20;;;10.20;99.90;;;;;;5000264;28;20061;-55
2022/12/24 05:47:22;;;;;;;15.02;3.90;;;10.30;99.90;;;;;;5000587;28;20101;-56
2022/12/24 05:49:48;;;;;;;18.75;4.25;;;10.30;99.90;;;;;;4999310;28;20045;-53
2022/12/24 05:52:13;;;;;;;23.38;4.85;;;10.40;99.90;;;;;;4998703;28;20033;-58
2022/12/24 05:54:39;;;;;;;13.48;4.57;;;10.40;99.90;;;;;;5059908;23;20053;-49
2022/12/24 05:57:04;;;;;;;12.02;3.78;;;10.40;99.90;;;;;;5068196;28;20111;-46
2022/12/24 05:59:30;;;;;;;25.98;4.65;;;10.40;99.90;;;;;;5033139;28;20108;-46
2022/12/24 06:01:55;;;;;;;19.85;4.18;;;10.40;99.90;;;;;;5031060;28;20018;-47
2022/12/24 06:04:21;;;;;;;19.90;4.78;;;10.40;99.90;;;;;;5032638;28;20536;-46
2022/12/24 06:06:46;;;;;;;17.38;3.40;;;10.50;99.90;;;;;;5034056;28;20100;-45
2022/12/24 06:09:12;;;;;;;22.08;3.97;;;10.50;99.90;;;;;;5034059;28;20047;-47
2022/12/24 06:11:37;;;;;;;26.30;5.15;;;10.60;99.90;;;;;;5032520;28;20022;-48
2022/12/24 06:14:03;;;;;;;22.92;3.67;;;10.50;99.90;;;;;;5031869;28;20018;-46
2022/12/24 06:16:28;;;;;;;23.10;5.28;;;10.50;99.90;;;;;;5032517;28;20555;-46
2022/12/24 06:18:54;;;;;;;25.73;5.07;;;10.50;99.90;;;;;;5033937;28;20037;-48
2022/12/24 06:21:20;;;;;;;23.95;4.85;;;10.60;99.90;;;;;;5016015;28;20022;-46
2022/12/24 06:23:46;;;;;;;19.15;3.00;;;10.60;99.90;;;;;;5032922;28;20029;-46
2022/12/24 06:26:15;;;;;;;20.02;3.85;;;10.60;99.90;;;;;;5015544;28;20072;-46
2022/12/24 06:28:41;;;;;;;21.80;4.05;;;10.60;99.90;;;;;;5033528;28;20026;-47
2022/12/24 06:31:11;;;;;;;19.05;5.03;;;10.60;99.90;;;;;;5033595;28;20550;-47
2022/12/24 06:33:37;;;;;;;24.75;4.53;;;10.70;99.90;;;;;;5032773;28;20055;-47
2022/12/24 06:36:06;;;;;;;20.88;4.05;;;10.60;99.90;;;;;;5033557;28;20033;-48
2022/12/24 06:38:32;;;;;;;26.55;4.10;;;10.70;99.90;;;;;;5033601;28;20033;-46
2022/12/24 06:40:57;;;;;;;22.55;3.53;;;10.70;99.90;;;;;;5033384;28;20554;-47
2022/12/24 06:43:23;;;;;;;24.05;3.72;;;10.70;99.90;;;;;;5032519;28;20025;-50
2022/12/24 06:45:49;;;;;;;13.10;3.85;;;10.60;99.90;;;;;;5033205;28;20124;-48
2022/12/24 06:48:15;;;;;;;25.70;4.10;;;10.60;99.90;;;;;;5033207;28;20029;-46
2022/12/24 06:50:41;;;;;;;20.23;4.53;;;10.60;99.90;;;;;;5031381;28;20021;-45
2022/12/24 06:53:07;;;;;;;23.10;5.13;;;10.50;99.90;;;;;;5032354;28;20547;-48
2022/12/24 06:55:32;;;;;;;23.42;4.90;;;10.50;99.90;;;;;;5033168;28;20029;-48
2022/12/24 06:57:58;;;;;;;16.55;4.20;;;10.50;99.90;;;;;;5033498;28;20060;-47
2022/12/24 07:00:24;;;;;;;25.83;4.88;;;10.50;99.90;;;;;;5049177;28;20025;-48
2022/12/24 07:02:49;;;;;;;20.30;4.88;;;10.50;99.90;;;;;;5051217;28;20055;-47
2022/12/24 07:05:15;;;;;;;23.30;3.75;;;10.60;99.90;;;;;;5052049;28;20075;-48
2022/12/24 07:07:43;;;;;;;16.15;4.43;;;10.60;99.90;;;;;;5051827;28;20029;-50
2022/12/24 07:10:14;;;;;;;25.23;5.68;;;10.60;99.90;;;;;;5052257;28;20021;-48
2022/12/24 07:12:39;;;;;;;21.25;5.07;;;10.70;99.90;;;;;;5033550;28;20029;-48
2022/12/24 07:15:05;;;;;;;30.50;4.80;;;10.70;99.90;;;;;;5052180;28;20485;-53
2022/12/24 07:17:31;;;;;;;21.27;4.40;;;10.70;99.90;;;;;;5050578;28;20492;-49
2022/12/24 07:19:56;;;;;;;29.00;4.93;;;10.80;99.90;;;;;;5052282;28;20085;-50
2022/12/24 07:22:22;;;;;;;27.73;4.95;;;10.80;99.90;;;;;;5051335;28;20032;-48
2022/12/24 07:24:47;;;;;;;29.02;4.60;;;10.80;99.90;;;;;;5051986;28;20029;-48
2022/12/24 07:27:13;;;;;;;22.08;3.72;;;10.80;99.90;;;;;;5052126;28;20029;-54
2022/12/24 07:29:40;;;;;;;21.58;5.55;;;10.70;99.90;;;;;;5052034;28;20032;-48
2022/12/24 07:32:05;;;;;;;20.63;3.55;;;10.80;99.90;;;;;;5051242;28;20024;-51
2022/12/24 07:34:31;;;;;;;29.48;4.22;;;10.80;99.90;;;;;;5051945;28;20025;-50
2022/12/24 07:36:56;;;;;;;26.02;4.25;;;10.70;99.90;;;;;;5051223;28;20037;-47
2022/12/24 07:39:22;;;;;;;28.77;5.38;;;10.80;99.90;;;;;;5051836;28;20033;-50
2022/12/24 07:41:49;;;;;;;23.05;4.25;;;10.70;99.90;;;;;;5033614;28;20524;-49
2022/12/24 07:44:15;;;;;;;24.33;4.70;;;10.80;99.90;;;;;;5049885;28;20032;-49
2022/12/24 07:46:41;;;;;;;25.73;4.30;;;10.70;99.90;;;;;;5051749;28;20037;-48
2022/12/24 07:49:07;;;;;;;25.75;4.82;;;10.80;99.90;;;;;;5051591;28;20417;-49
2022/12/24 07:51:32;;;;;;;25.88;6.35;;;10.70;99.90;;;;;;5051695;28;20103;-48
2022/12/24 07:53:58;;;;;;;28.75;5.40;;;10.70;99.90;;;;;;5050620;28;20386;-49
2022/12/24 07:56:23;;;;;;;29.30;5.00;;;10.70;99.90;;;;;;5051282;28;20025;-49
2022/12/24 07:58:50;;;;;;;26.30;4.80;;;10.80;99.90;;;;;;5051020;28;20029;-51
2022/12/24 08:01:16;;;;;;;24.33;4.63;;;10.80;99.90;;;;;;5051357;28;20111;-57
2022/12/24 08:03:41;;;;;;;34.35;6.05;;;10.80;99.90;;;;;;5046026;28;20116;-59
2022/12/24 08:06:07;;;;;;;21.90;4.13;;;10.80;99.90;;;;;;5033553;28;20033;-59
2022/12/24 08:08:33;;;;;;;25.52;4.32;;;10.70;99.90;;;;;;5052140;28;20029;-51
2022/12/24 08:11:05;;;;;;;25.90;4.72;;;10.80;99.90;;;;;;5049971;28;20025;-53
2022/12/24 08:13:31;;;;;;;21.33;4.85;;;10.70;99.90;;;;;;5041106;28;20068;-52
2022/12/24 08:15:57;;;;;;;21.30;4.75;;;10.70;99.90;;;;;;5050087;28;20159;-51
2022/12/24 08:18:22;;;;;;;25.05;5.70;;;10.70;99.90;;;;;;5051326;28;20112;-54
2022/12/24 08:20:48;;;;;;;28.17;5.85;;;10.80;99.90;;;;;;5047485;28;20112;-52
2022/12/24 08:23:13;;;;;;;23.55;5.13;;;10.80;99.90;;;;;;5050569;28;20036;-54
2022/12/24 08:25:47;;;;;;;28.17;4.68;;;10.80;99.90;;;;;;5051404;28;20505;-51
2022/12/24 08:28:14;;;;;;;32.78;6.38;;;10.70;99.90;;;;;;5050823;28;20025;-50
2022/12/24 08:30:40;;;;;;;22.13;4.32;;;10.70;99.90;;;;;;5035866;28;20043;-55
2022/12/24 08:33:06;;;;;;;29.00;5.93;;;10.70;99.90;;;;;;5056435;28;20029;-54
2022/12/24 08:35:31;;;;;;;38.97;5.88;;;10.70;99.90;;;;;;5054926;28;20400;-64
2022/12/24 08:37:57;;;;;;;18.55;4.35;;;10.70;99.90;;;;;;5033419;28;20481;-50
2022/12/24 08:40:23;;;;;;;28.50;5.00;;;10.70;99.90;;;;;;5032946;28;20051;-53
2022/12/24 08:42:48;;;;;;;21.63;4.28;;;10.70;99.90;;;;;;5046575;28;20091;-56
2022/12/24 08:45:14;;;;;;;26.45;6.10;;;10.70;99.90;;;;;;5025083;28;20123;-55
2022/12/24 08:47:40;;;;;;;30.10;6.32;;;10.80;99.90;;;;;;5050526;28;20037;-52
2022/12/24 08:50:07;;;;;;;28.63;6.00;;;10.80;99.90;;;;;;5050932;28;20086;-56
2022/12/24 08:52:32;;;;;;;23.02;6.25;;;10.90;99.90;;;;;;5050371;28;20032;-55
2022/12/24 08:54:58;;;;;;;20.45;3.88;;;10.90;99.90;;;;;;5050366;28;20033;-53
2022/12/24 08:57:23;;;;;;;31.25;5.28;;;11.00;99.90;;;;;;5050905;28;20086;-53
2022/12/24 08:59:49;;;;;;;32.47;5.97;;;11.10;99.90;;;;;;5049765;28;20025;-56
2022/12/24 09:02:15;;;;;;;26.90;5.00;;;11.20;99.90;;;;;;5050364;28;20893;-50
2022/12/24 09:04:40;;;;;;;25.70;5.20;;;11.30;99.90;;;;;;5050688;28;20500;-47
2022/12/24 09:07:08;;;;;;;28.13;5.68;;;11.30;99.90;;;;;;5051183;28;20071;-56
2022/12/24 09:09:34;;;;;;;20.73;4.03;;;11.30;99.90;;;;;;5049500;28;20036;-55
2022/12/24 09:11:59;;;;;;;24.38;4.93;;;11.20;99.90;;;;;;5050753;28;20021;-54
2022/12/24 09:14:25;;;;;;;29.92;5.40;;;11.10;99.90;;;;;;5035139;28;20091;-52
2022/12/24 09:16:50;;;;;;;27.02;5.68;;;11.20;99.90;;;;;;5013532;28;20477;-54
2022/12/24 09:19:16;;;;;;;27.38;4.18;;;11.20;99.90;;;;;;5032490;28;20041;-49
2022/12/24 09:21:41;;;;;;;24.90;4.85;;;11.20;99.90;;;;;;5031060;28;20030;-55
2022/12/24 09:24:07;;;;;;;28.83;11.00;;;11.20;99.90;;;;;;5030305;28;20032;-55
2022/12/24 09:26:35;;;;;;;27.83;6.60;;;11.20;99.90;;;;;;5031357;28;20436;-49
2022/12/24 09:29:01;;;;;;;23.08;5.55;;;11.20;99.90;;;;;;5031316;28;20478;-51
2022/12/24 09:31:27;;;;;;;26.95;4.45;;;11.20;99.90;;;;;;5013704;28;20025;-53
2022/12/24 09:33:53;;;;;;;25.70;5.35;;;11.30;99.90;;;;;;5031215;28;20025;-48
2022/12/24 09:36:19;;;;;;;27.65;6.22;;;11.30;99.90;;;;;;5031679;28;20374;-50
2022/12/24 09:38:45;;;;;;;27.10;4.57;;;11.40;99.90;;;;;;5032116;28;20021;-54
2022/12/24 09:41:52;;;;;;;31.08;4.82;;;11.30;99.90;;;;;;5034691;28;20082;-51
2022/12/24 09:44:37;;;;;;;23.42;5.07;;;11.40;99.90;;;;;;5020046;28;20553;-54
2022/12/24 09:47:27;;;;;;;19.25;4.07;;;11.50;99.90;;;;;;5034387;28;20136;-52
2022/12/24 09:49:55;;;;;;;26.08;5.72;;;11.50;99.90;;;;;;5034162;28;20112;-53
2022/12/24 09:52:41;;;;;;;27.00;5.18;;;11.60;99.90;;;;;;5015766;28;20025;-50
2022/12/24 09:55:31;;;;;;;20.40;5.75;;;11.60;99.90;;;;;;5045921;28;20051;-49
2022/12/24 09:57:58;;;;;;;20.85;4.90;;;11.60;99.90;;;;;;5036191;28;20068;-48
2022/12/24 10:00:32;;;;;;;27.55;5.07;;;11.60;99.90;;;;;;5053681;28;20025;-53
2022/12/24 10:02:57;;;;;;;31.83;5.13;;;11.60;99.90;;;;;;5052913;28;20025;-52
2022/12/24 10:05:42;;;;;;;20.15;4.03;;;11.70;99.90;;;;;;5054016;28;20028;-52
2022/12/24 10:08:23;;;;;;;23.48;4.90;;;11.80;99.90;;;;;;5035957;28;20115;-54
2022/12/24 10:11:17;;;;;;;29.55;5.13;;;11.90;99.90;;;;;;5053868;28;20452;-52
2022/12/24 10:14:04;;;;;;;25.05;6.00;;;12.00;99.90;;;;;;5052894;28;20029;-51
2022/12/24 10:16:52;;;;;;;34.40;5.03;;;12.00;99.90;;;;;;5035408;28;20567;-54
2022/12/24 10:19:46;;;;;;;26.15;5.53;;;12.10;99.90;;;;;;5050824;28;20151;-55
2022/12/24 10:22:14;;;;;;;20.08;4.28;;;12.20;99.90;;;;;;5053096;28;20025;-53
2022/12/24 10:24:48;;;;;;;25.02;4.80;;;12.20;99.90;;;;;;5036307;28;20612;-52
2022/12/24 10:27:16;;;;;;;21.20;4.27;;;12.40;99.90;;;;;;5033829;28;20033;-51
2022/12/24 10:29:46;;;;;;;32.65;5.55;;;12.60;99.90;;;;;;5015650;28;20029;-53
2022/12/24 10:32:21;;;;;;;20.88;6.05;;;13.00;99.90;;;;;;5032913;28;20029;-53
2022/12/24 10:35:29;;;;;;;21.45;5.28;;;13.20;99.90;;;;;;5015698;28;20029;-50
2022/12/24 10:37:56;;;;;;;33.83;11.25;;;13.70;99.90;;;;;;5015890;28;20037;-52
2022/12/24 10:40:35;;;;;;;14.70;4.18;;;14.50;99.90;;;;;;5032199;28;20559;-51
2022/12/24 10:43:01;;;;;;;29.38;7.50;;;14.70;99.90;;;;;;5032554;28;20401;-54
2022/12/24 10:45:36;;;;;;;29.55;6.55;;;14.70;99.90;;;;;;5033377;28;20036;-50
2022/12/24 10:48:06;;;;;;;23.98;4.57;;;14.60;99.90;;;;;;5034241;28;20488;-56
2022/12/24 10:50:38;;;;;;;25.55;6.38;;;14.40;99.90;;;;;;5040282;28;20040;-49
2022/12/24 10:53:17;;;;;;;21.27;5.00;;;14.20;99.90;;;;;;5050779;28;20036;-51
2022/12/24 10:55:43;;;;;;;31.10;5.35;;;14.20;99.90;;;;;;5052510;28;20028;-50
2022/12/24 10:58:18;;;;;;;17.90;5.32;;;14.30;99.90;;;;;;5052988;28;20035;-51
2022/12/24 11:00:51;;;;;;;18.92;4.25;;;14.30;99.90;;;;;;5051352;28;20033;-52
2022/12/24 11:03:17;;;;;;;22.90;5.57;;;14.40;99.90;;;;;;5041380;28;20418;-52
2022/12/24 11:05:42;;;;;;;20.45;4.30;;;14.40;99.90;;;;;;5032956;28;20056;-54
2022/12/24 11:08:16;;;;;;;27.38;5.05;;;14.50;99.90;;;;;;5046052;28;20033;-52
2022/12/24 11:10:54;;;;;;;30.52;4.88;;;14.50;99.90;;;;;;5034657;28;20024;-57
2022/12/24 11:13:35;;;;;;;22.95;4.85;;;14.40;99.90;;;;;;5044393;28;20032;-53
2022/12/24 11:16:09;;;;;;;29.10;4.30;;;14.20;99.90;;;;;;5033394;28;20492;-56
2022/12/24 11:18:43;;;;;;;30.30;5.60;;;14.00;99.90;;;;;;5052818;28;20029;-56
2022/12/24 11:21:08;;;;;;;26.10;5.38;;;13.70;99.90;;;;;;5052445;28;20025;-57
2022/12/24 11:23:34;;;;;;;27.23;5.30;;;13.50;99.90;;;;;;5052046;28;20036;-59
2022/12/24 11:26:00;;;;;;;21.55;4.63;;;13.40;99.90;;;;;;5052550;28;20021;-58
2022/12/24 11:28:32;;;;;;;21.83;4.35;;;13.20;99.90;;;;;;5033747;28;20021;-57
2022/12/24 11:31:16;;;;;;;28.50;4.70;;;13.20;99.90;;;;;;5032730;28;20444;-54
2022/12/24 11:33:50;;;;;;;25.85;4.70;;;12.90;99.90;;;;;;5036090;28;20499;-59
2022/12/24 11:36:22;;;;;;;21.98;4.18;;;12.80;99.90;;;;;;5046370;28;20025;-58
2022/12/24 11:38:56;;;;;;;29.30;5.68;;;12.60;99.90;;;;;;5032754;28;20078;-57
2022/12/24 11:41:24;;;;;;;31.77;5.65;;;12.40;99.90;;;;;;5032903;28;20562;-55
2022/12/24 11:43:58;;;;;;;26.88;5.32;;;12.40;99.90;;;;;;5031607;28;20064;-55
2022/12/24 11:46:26;;;;;;;27.25;6.47;;;12.40;99.90;;;;;;5032278;28;20038;-50
2022/12/24 11:49:24;;;;;;;31.58;4.50;;;12.50;99.90;;;;;;5032461;28;20021;-56
2022/12/24 11:52:08;;;;;;;28.80;5.57;;;12.50;99.90;;;;;;5031207;28;20030;-58
2022/12/24 11:54:45;;;;;;;33.55;5.78;;;12.60;99.90;;;;;;5077656;22;20417;-57
2022/12/24 11:57:14;;;;;;;35.35;6.45;;;12.70;99.90;;;;;;5060361;28;20078;-52
2022/12/24 11:59:46;;;;;;;29.42;6.13;;;12.80;99.90;;;;;;5071982;28;20024;-56
2022/12/24 12:02:23;;;;;;;33.10;4.90;;;12.80;99.90;;;;;;5065558;28;20036;-52
2022/12/24 12:04:55;;;;;;;27.55;5.47;;;12.80;99.90;;;;;;5072024;28;20431;-58
2022/12/24 12:07:29;;;;;;;26.35;5.43;;;12.90;99.90;;;;;;5053700;28;20088;-58
2022/12/24 12:10:02;;;;;;;21.10;5.22;;;12.90;99.90;;;;;;5051886;28;20024;-56
2022/12/24 12:12:32;;;;;;;33.28;8.00;;;12.90;99.90;;;;;;5050905;28;20408;-56
2022/12/24 12:15:05;;;;;;;25.75;5.13;;;12.80;99.90;;;;;;5039551;28;20107;-56
2022/12/24 12:17:50;;;;;;;29.13;5.03;;;12.80;99.90;;;;;;5071468;28;20393;-57
2022/12/24 12:20:24;;;;;;;;;;;12.80;99.90;;;;;;5066534;28;20075;-51
2022/12/24 12:23:02;;;;;;;33.22;5.32;;;12.70;99.90;;;;;;5049421;28;20340;-50
2022/12/24 12:25:41;;;;;;;25.00;4.95;;;12.80;99.90;;;;;;5049595;28;20045;-54
2022/12/24 12:28:21;;;;;;;26.05;4.70;;;12.70;99.90;;;;;;5050686;28;20117;-53
2022/12/24 12:30:57;;;;;;;19.92;5.65;;;12.70;99.90;;;;;;5049594;28;20017;-52
2022/12/24 12:33:34;;;;;;;26.98;5.13;;;12.70;99.90;;;;;;5050536;28;20511;-55
2022/12/24 12:36:01;;;;;;;21.83;4.35;;;12.70;99.90;;;;;;5051568;28;20047;-53
2022/12/24 12:38:30;;;;;;;20.42;4.75;;;12.70;99.90;;;;;;5051420;28;20025;-52
2022/12/24 12:41:02;;;;;;;20.15;4.40;;;12.70;99.90;;;;;;5033662;28;20048;-53
2022/12/24 12:43:46;;;;;;;16.30;4.22;;;12.60;99.90;;;;;;5050509;28;20029;-48
2022/12/24 12:46:54;;;;;;;21.02;4.70;;;12.70;99.90;;;;;;5051517;28;20064;-47
2022/12/24 12:49:56;;;;;;;21.08;3.97;;;12.80;99.90;;;;;;5051414;28;20017;-49
2022/12/24 12:52:52;;;;;;;18.48;4.28;;;12.80;99.90;;;;;;5050746;28;20500;-46
2022/12/24 12:55:36;;;;;;;24.05;4.50;;;12.80;99.90;;;;;;5051301;28;20041;-45
2022/12/24 12:58:24;;;;;;;21.27;4.13;;;12.80;99.90;;;;;;5066841;28;20500;-49
2022/12/24 13:00:57;;;;;;;23.35;5.07;;;12.80;99.90;;;;;;5071290;28;20020;-50